createdAt,value
2022-11-15T00:00:56.564Z,100915.59
2022-11-15T00:03:28.330Z,100920.41
2022-11-15T00:05:55.249Z,100900.03
2022-11-15T00:08:21.860Z,100916.06
2022-11-15T00:10:59.183Z,100918.72
2022-11-15T00:13:26.287Z,100925.28
2022-11-15T00:15:53.177Z,100912.47
2022-11-15T00:18:19.913Z,100927.19
2022-11-15T00:20:46.369Z,100916.94
2022-11-15T00:23:13.094Z,100924.66
2022-11-15T00:25:39.780Z,100910.41
2022-11-15T00:28:06.253Z,100899.28
2022-11-15T00:30:32.780Z,100917.03
2022-11-15T00:33:04.100Z,100924.28
2022-11-15T00:35:33.174Z,100917.03
2022-11-15T00:37:59.893Z,100902.75
2022-11-15T00:40:26.441Z,100919.88
2022-11-15T00:42:55.186Z,100912.25
2022-11-15T00:45:21.624Z,100913.56
2022-11-15T00:47:48.052Z,100895.94
2022-11-15T00:50:15.499Z,100919.44
2022-11-15T00:52:42.427Z,100915.53
2022-11-15T00:55:14.921Z,100905.41
2022-11-15T00:57:41.453Z,100912.38
2022-11-15T01:00:08.342Z,100914.78
2022-11-15T01:02:35.500Z,100913.53
2022-11-15T01:05:02.379Z,100899.78
2022-11-15T01:07:28.931Z,100914.00
2022-11-15T01:09:55.368Z,100907.81
2022-11-15T01:12:21.818Z,100913.38
2022-11-15T01:14:48.260Z,100903.69
2022-11-15T01:17:14.663Z,100912.94
2022-11-15T01:19:41.152Z,100893.56
2022-11-15T01:22:07.562Z,100906.22
2022-11-15T01:24:34.007Z,100884.53
2022-11-15T01:27:00.415Z,100891.81
2022-11-15T01:29:26.813Z,100900.50
2022-11-15T01:31:54.810Z,100894.00
2022-11-15T01:34:21.270Z,100903.47
2022-11-15T01:36:47.663Z,100903.97
2022-11-15T01:39:14.197Z,100891.94
2022-11-15T01:41:40.647Z,100883.91
2022-11-15T01:44:32.213Z,100895.38
2022-11-15T01:47:01.916Z,100889.91
2022-11-15T01:49:31.106Z,100868.72
2022-11-15T01:51:59.259Z,100884.44
2022-11-15T01:54:26.369Z,100874.41
2022-11-15T01:57:19.079Z,100883.00
2022-11-15T01:59:46.456Z,100880.59
2022-11-15T02:02:13.260Z,100878.78
2022-11-15T02:04:48.999Z,100864.31
2022-11-15T02:07:20.827Z,100870.69
2022-11-15T02:09:47.883Z,100852.25
2022-11-15T02:12:19.635Z,100841.97
2022-11-15T02:14:51.815Z,100862.63
2022-11-15T02:17:30.426Z,100855.03
2022-11-15T02:20:10.773Z,100861.81
2022-11-15T02:22:37.058Z,100869.50
2022-11-15T02:25:18.797Z,100875.78
2022-11-15T02:27:57.646Z,100860.72
2022-11-15T02:30:35.846Z,100864.69
2022-11-15T02:33:14.217Z,100855.66
2022-11-15T02:35:55.935Z,100858.53
2022-11-15T02:39:02.758Z,100859.63
2022-11-15T02:41:44.452Z,100835.97
2022-11-15T02:44:23.300Z,100852.63
2022-11-15T02:47:14.429Z,100844.41
2022-11-15T02:49:45.202Z,100843.19
2022-11-15T02:52:20.193Z,100832.22
2022-11-15T02:55:01.018Z,100837.53
2022-11-15T02:57:39.725Z,100836.28
2022-11-15T03:00:35.266Z,100833.25
2022-11-15T03:03:25.409Z,100845.31
2022-11-15T03:05:59.472Z,100831.91
2022-11-15T03:08:40.825Z,100848.03
2022-11-15T03:11:14.524Z,100830.75
2022-11-15T03:13:53.233Z,100842.69
2022-11-15T03:16:40.594Z,100842.47
2022-11-15T03:19:25.917Z,100827.59
2022-11-15T03:21:54.761Z,100843.03
2022-11-15T03:24:25.978Z,100835.03
2022-11-15T03:26:55.883Z,100846.75
2022-11-15T03:29:28.270Z,100837.47
2022-11-15T03:32:06.806Z,100839.56
2022-11-15T03:34:48.497Z,100822.28
2022-11-15T03:37:16.974Z,100819.53
2022-11-15T03:39:44.694Z,100831.38
2022-11-15T03:42:33.615Z,100831.22
2022-11-15T03:45:09.907Z,100833.53
2022-11-15T03:47:42.614Z,100829.94
2022-11-15T03:50:13.362Z,100828.75
2022-11-15T03:52:42.039Z,100815.84
2022-11-15T03:55:12.187Z,100829.00
2022-11-15T03:57:39.008Z,100815.28
2022-11-15T04:00:06.626Z,100829.16
2022-11-15T04:02:33.149Z,100838.56
2022-11-15T04:04:59.532Z,100842.78
2022-11-15T04:07:26.186Z,100831.34
2022-11-15T04:10:05.000Z,100833.53
2022-11-15T04:12:41.553Z,100825.81
2022-11-15T04:15:11.276Z,100839.91
2022-11-15T04:17:55.561Z,100838.38
2022-11-15T04:20:43.623Z,100825.00
2022-11-15T04:23:31.707Z,100829.47
2022-11-15T04:26:00.995Z,100825.22
2022-11-15T04:28:27.727Z,100819.94
2022-11-15T04:30:56.965Z,100818.38
2022-11-15T04:33:24.175Z,100828.75
2022-11-15T04:36:09.212Z,100827.44
2022-11-15T04:38:36.823Z,100830.31
2022-11-15T04:41:04.077Z,100819.44
2022-11-15T04:43:31.050Z,100828.97
2022-11-15T04:45:57.671Z,100834.13
2022-11-15T04:48:24.336Z,100833.50
2022-11-15T04:50:50.927Z,100836.41
2022-11-15T04:53:17.410Z,100823.56
2022-11-15T04:55:47.298Z,100828.75
2022-11-15T04:58:13.693Z,100825.81
2022-11-15T05:00:41.023Z,100822.66
2022-11-15T05:03:26.123Z,100836.88
2022-11-15T05:05:52.573Z,100816.72
2022-11-15T05:08:18.976Z,100819.38
2022-11-15T05:10:45.854Z,100828.25
2022-11-15T05:13:12.339Z,100828.00
2022-11-15T05:15:38.984Z,100812.03
2022-11-15T05:18:05.439Z,100831.19
2022-11-15T05:20:31.908Z,100807.38
2022-11-15T05:22:58.397Z,100799.25
2022-11-15T05:25:25.246Z,100804.38
2022-11-15T05:27:52.294Z,100793.03
2022-11-15T05:30:18.851Z,100814.63
2022-11-15T05:32:45.851Z,100811.84
2022-11-15T05:35:27.035Z,100819.16
2022-11-15T05:37:53.514Z,100817.34
2022-11-15T05:40:19.984Z,100805.00
2022-11-15T05:42:47.740Z,100802.34
2022-11-15T05:45:14.849Z,100803.19
2022-11-15T05:47:42.267Z,100815.88
2022-11-15T05:50:12.438Z,100799.31
2022-11-15T05:52:42.468Z,100821.63
2022-11-15T05:55:10.313Z,100813.63
2022-11-15T05:57:37.133Z,100811.09
2022-11-15T06:00:04.589Z,100812.09
2022-11-15T06:02:31.339Z,100804.97
2022-11-15T06:04:57.827Z,100812.84
2022-11-15T06:07:24.365Z,100816.66
2022-11-15T06:09:50.783Z,100818.34
2022-11-15T06:12:17.200Z,100808.97
2022-11-15T06:14:43.649Z,100824.56
2022-11-15T06:17:11.460Z,100816.97
2022-11-15T06:19:38.101Z,100835.50
2022-11-15T06:22:04.513Z,100826.41
2022-11-15T06:24:30.919Z,100816.59
2022-11-15T06:26:58.416Z,100811.41
2022-11-15T06:29:24.826Z,100821.81
2022-11-15T06:31:51.304Z,100825.19
2022-11-15T06:34:17.742Z,100826.50
2022-11-15T06:36:44.289Z,100810.06
2022-11-15T06:39:10.743Z,100831.00
2022-11-15T06:41:37.317Z,100796.16
2022-11-15T06:44:04.052Z,100822.03
2022-11-15T06:46:30.541Z,100829.47
2022-11-15T06:48:57.001Z,100812.34
2022-11-15T06:51:23.473Z,100844.66
2022-11-15T06:53:49.963Z,100825.41
2022-11-15T06:56:16.359Z,100826.97
2022-11-15T06:58:42.744Z,100836.81
2022-11-15T07:01:11.962Z,100851.97
2022-11-15T07:03:40.797Z,100838.78
2022-11-15T07:06:08.563Z,100839.94
2022-11-15T07:08:35.909Z,100838.09
2022-11-15T07:11:05.164Z,100854.94
2022-11-15T07:13:36.665Z,100860.75
2022-11-15T07:16:05.809Z,100850.34
2022-11-15T07:18:35.350Z,100858.22
2022-11-15T07:21:06.594Z,100865.81
2022-11-15T07:23:33.590Z,100857.94
2022-11-15T07:26:00.913Z,100852.63
2022-11-15T07:28:28.270Z,100859.75
2022-11-15T07:30:55.533Z,100863.97
2022-11-15T07:33:22.497Z,100870.31
2022-11-15T07:35:51.836Z,100853.31
2022-11-15T07:38:21.165Z,100863.84
2022-11-15T07:40:48.018Z,100859.88
2022-11-15T07:43:14.688Z,100863.41
2022-11-15T07:45:46.638Z,100868.03
2022-11-15T07:48:13.250Z,100851.47
2022-11-15T07:50:43.570Z,100832.94
2022-11-15T07:53:10.482Z,100838.06
2022-11-15T07:55:37.152Z,100845.97
2022-11-15T07:58:09.316Z,100850.31
2022-11-15T08:00:36.184Z,100854.38
2022-11-15T08:03:08.112Z,100853.38
2022-11-15T08:05:35.940Z,100852.81
2022-11-15T08:08:03.373Z,100852.38
2022-11-15T08:10:30.659Z,100849.41
2022-11-15T08:13:02.667Z,100840.13
2022-11-15T08:15:29.755Z,100847.00
2022-11-15T08:18:01.321Z,100837.31
2022-11-15T08:20:32.803Z,100856.28
2022-11-15T08:23:00.835Z,100834.09
2022-11-15T08:25:28.609Z,100836.19
2022-11-15T08:27:56.873Z,100854.41
2022-11-15T08:30:24.827Z,100840.50
2022-11-15T08:32:54.400Z,100856.66
2022-11-15T08:35:27.659Z,100853.69
2022-11-15T08:37:55.591Z,100865.75
2022-11-15T08:40:22.352Z,100850.31
2022-11-15T08:42:49.205Z,100858.13
2022-11-15T08:45:15.992Z,100856.44
2022-11-15T08:47:42.572Z,100857.00
2022-11-15T08:50:09.811Z,100864.41
2022-11-15T08:52:36.253Z,100850.34
2022-11-15T08:55:03.020Z,100857.09
2022-11-15T08:57:31.256Z,100853.84
2022-11-15T08:59:58.276Z,100860.28
2022-11-15T09:02:24.817Z,100865.34
2022-11-15T09:04:51.271Z,100859.16
2022-11-15T09:07:18.480Z,100860.25
2022-11-15T09:09:44.970Z,100859.56
2022-11-15T09:12:11.682Z,100854.63
2022-11-15T09:14:38.397Z,100855.13
2022-11-15T09:17:08.090Z,100843.94
2022-11-15T09:19:34.480Z,100838.56
2022-11-15T09:22:00.917Z,100862.44
2022-11-15T09:24:27.602Z,100845.38
2022-11-15T09:26:57.115Z,100851.66
2022-11-15T09:29:23.673Z,100851.22
2022-11-15T09:31:52.482Z,100832.78
2022-11-15T09:34:18.995Z,100849.28
2022-11-15T09:36:45.416Z,100831.19
2022-11-15T09:39:11.830Z,100850.22
2022-11-15T09:42:07.092Z,100853.22
2022-11-15T09:44:41.891Z,100858.47
2022-11-15T09:47:11.381Z,100854.34
2022-11-15T09:49:38.058Z,100856.38
2022-11-15T09:52:04.962Z,100845.22
2022-11-15T09:54:52.764Z,100853.84
2022-11-15T09:57:32.367Z,100858.59
2022-11-15T10:03:14.424Z,100872.00
2022-11-15T10:05:48.089Z,100858.75
2022-11-15T10:08:26.744Z,100858.47
2022-11-15T10:14:00.426Z,100860.00
2022-11-15T10:16:49.539Z,100863.69
2022-11-15T10:19:36.079Z,100855.84
2022-11-15T10:22:26.695Z,100844.28
2022-11-15T10:25:05.091Z,100843.59
2022-11-15T10:27:31.642Z,100849.44
2022-11-15T10:29:58.109Z,100828.16
2022-11-15T10:32:24.682Z,100832.19
2022-11-15T10:34:52.029Z,100828.69
2022-11-15T10:37:32.675Z,100843.00
2022-11-15T10:40:28.713Z,100829.78
2022-11-15T10:43:16.932Z,100834.66
2022-11-15T10:45:44.385Z,100833.13
2022-11-15T10:48:13.923Z,100827.59
2022-11-15T10:50:41.714Z,100821.56
2022-11-15T10:53:33.317Z,100818.06
2022-11-15T10:56:08.114Z,100802.97
2022-11-15T10:58:44.990Z,100809.34
2022-11-15T11:01:13.542Z,100813.69
2022-11-15T11:03:41.801Z,100803.97
2022-11-15T11:06:18.222Z,100808.22
2022-11-15T11:09:22.551Z,100808.09
2022-11-15T11:11:51.661Z,100808.09
2022-11-15T11:14:31.913Z,100809.28
2022-11-15T11:17:10.581Z,100801.13
2022-11-15T11:19:43.152Z,100795.72
2022-11-15T11:22:35.917Z,100798.94
2022-11-15T11:25:25.277Z,100796.25
2022-11-15T11:28:03.488Z,100797.59
2022-11-15T11:30:48.919Z,100775.63
2022-11-15T11:33:34.452Z,100791.09
2022-11-15T11:36:36.122Z,100780.72
2022-11-15T11:39:25.361Z,100778.03
2022-11-15T11:42:16.639Z,100771.16
2022-11-15T11:44:47.730Z,100771.66
2022-11-15T11:47:39.187Z,100768.66
2022-11-15T11:50:16.659Z,100769.66
2022-11-15T11:53:18.515Z,100772.34
2022-11-15T11:55:53.944Z,100761.28
2022-11-15T11:58:23.314Z,100764.31
2022-11-15T12:01:09.897Z,100764.78
2022-11-15T12:03:47.186Z,100740.50
2022-11-15T12:06:28.375Z,100753.56
2022-11-15T12:09:02.852Z,100739.47
2022-11-15T12:11:50.353Z,100728.38
2022-11-15T12:14:38.514Z,100742.13
2022-11-15T12:17:05.350Z,100734.25
2022-11-15T12:19:32.190Z,100753.03
2022-11-15T12:22:09.484Z,100748.47
2022-11-15T12:24:59.615Z,100725.97
2022-11-15T12:27:39.582Z,100735.28
2022-11-15T12:30:22.186Z,100736.41
2022-11-15T12:33:02.322Z,100731.31
2022-11-15T12:35:43.213Z,100713.97
2022-11-15T12:38:13.840Z,100729.88
2022-11-15T12:41:29.224Z,100725.31
2022-11-15T12:43:56.785Z,100722.63
2022-11-15T12:46:43.645Z,100717.53
2022-11-15T12:49:21.967Z,100719.69
2022-11-15T12:51:48.338Z,100719.69
2022-11-15T12:54:24.055Z,100718.16
2022-11-15T12:57:08.747Z,100711.19
2022-11-15T12:59:59.422Z,100708.16
2022-11-15T13:02:30.210Z,100708.16
2022-11-15T13:05:16.741Z,100707.25
2022-11-15T13:07:43.173Z,100706.78
2022-11-15T13:10:30.675Z,100689.88
2022-11-15T13:13:02.968Z,100690.91
2022-11-15T13:15:47.743Z,100685.34
2022-11-15T13:18:36.775Z,100680.09
2022-11-15T13:21:25.268Z,100678.41
2022-11-15T13:23:56.297Z,100684.75
2022-11-15T13:26:23.604Z,100677.53
2022-11-15T13:28:53.260Z,100675.56
2022-11-15T13:31:22.317Z,100681.53
2022-11-15T13:33:48.861Z,100677.47
2022-11-15T13:36:28.382Z,100680.25
2022-11-15T13:39:03.399Z,100684.72
2022-11-15T13:41:33.015Z,100660.63
2022-11-15T13:44:01.301Z,100660.34
2022-11-15T13:46:33.841Z,100641.66
2022-11-15T13:49:06.104Z,100650.38
2022-11-15T13:51:38.501Z,100650.31
2022-11-15T13:54:14.422Z,100648.03
2022-11-15T13:56:48.696Z,100632.81
2022-11-15T13:59:49.471Z,100637.00
2022-11-15T14:02:19.044Z,100637.47
2022-11-15T14:04:55.001Z,100643.84
2022-11-15T14:07:24.412Z,100640.31
2022-11-15T14:09:50.939Z,100652.66
2022-11-15T14:12:35.754Z,100642.75
2022-11-15T14:15:39.357Z,100657.84
2022-11-15T14:18:07.009Z,100654.34
2022-11-15T14:20:35.361Z,100637.97
2022-11-15T14:23:19.556Z,100642.91
2022-11-15T14:26:00.089Z,100637.16
2022-11-15T14:28:26.571Z,100636.06
2022-11-15T14:30:55.829Z,100635.59
2022-11-15T14:33:34.207Z,100624.81
2022-11-15T14:36:27.116Z,100651.47
2022-11-15T14:38:55.164Z,100638.25
2022-11-15T14:41:22.596Z,100638.88
2022-11-15T14:43:49.828Z,100647.56
2022-11-15T14:46:16.279Z,100650.03
2022-11-15T14:48:42.780Z,100633.38
2022-11-15T14:51:18.130Z,100641.97
2022-11-15T14:53:45.940Z,100641.88
2022-11-15T14:56:13.088Z,100634.91
2022-11-15T14:58:39.713Z,100627.09
2022-11-15T15:01:16.964Z,100627.50
2022-11-15T15:03:45.088Z,100617.69
2022-11-15T15:06:17.718Z,100612.38
2022-11-15T15:08:45.375Z,100616.44
2022-11-15T15:11:16.721Z,100634.75
2022-11-15T15:13:43.296Z,100643.63
2022-11-15T15:16:09.731Z,100629.41
2022-11-15T15:18:36.169Z,100637.97
2022-11-15T15:21:08.129Z,100638.34
2022-11-15T15:23:36.589Z,100632.81
2022-11-15T15:26:03.409Z,100646.56
2022-11-15T15:28:34.292Z,100638.81
2022-11-15T15:31:01.552Z,100643.84
2022-11-15T15:33:28.269Z,100635.59
2022-11-15T15:35:54.754Z,100640.44
2022-11-15T15:38:22.513Z,100640.38
2022-11-15T15:40:51.524Z,100635.31
2022-11-15T15:43:18.228Z,100629.88
2022-11-15T15:45:45.950Z,100624.00
2022-11-15T15:48:14.024Z,100626.66
2022-11-15T15:50:40.627Z,100625.91
2022-11-15T15:53:09.143Z,100631.06
2022-11-15T15:55:35.891Z,100620.81
2022-11-15T15:58:02.331Z,100624.41
2022-11-15T16:00:28.999Z,100611.94
2022-11-15T16:02:55.712Z,100631.50
2022-11-15T16:05:23.231Z,100619.06
2022-11-15T16:07:49.757Z,100618.69
2022-11-15T16:10:21.752Z,100606.25
2022-11-15T16:12:48.346Z,100609.00
2022-11-15T16:15:15.162Z,100605.78
2022-11-15T16:17:48.082Z,100609.47
2022-11-15T16:20:40.356Z,100599.06
2022-11-15T16:23:10.073Z,100584.13
2022-11-15T16:25:56.970Z,100590.38
2022-11-15T16:28:25.777Z,100579.97
2022-11-15T16:31:02.215Z,100589.06
2022-11-15T16:33:28.908Z,100584.28
2022-11-15T16:35:55.385Z,100575.56
2022-11-15T16:38:21.862Z,100575.47
2022-11-15T16:40:48.400Z,100580.22
2022-11-15T16:43:14.946Z,100538.50
2022-11-15T16:45:41.378Z,100562.84
2022-11-15T16:48:17.989Z,100569.25
2022-11-15T16:50:44.489Z,100565.06
2022-11-15T16:53:10.911Z,100568.03
2022-11-15T16:55:37.625Z,100565.88
2022-11-15T16:58:04.050Z,100570.41
2022-11-15T17:00:30.598Z,100579.41
2022-11-15T17:02:57.946Z,100580.56
2022-11-15T17:05:27.257Z,100574.72
2022-11-15T17:07:56.547Z,100578.53
2022-11-15T17:10:24.692Z,100564.31
2022-11-15T17:12:51.908Z,100555.94
2022-11-15T17:15:18.888Z,100572.50
2022-11-15T17:17:50.816Z,100570.97
2022-11-15T17:20:18.825Z,100570.44
2022-11-15T17:22:47.245Z,100567.41
2022-11-15T17:25:14.558Z,100562.50
2022-11-15T17:27:41.336Z,100550.38
2022-11-15T17:30:08.369Z,100554.88
2022-11-15T17:32:38.204Z,100548.78
2022-11-15T17:35:14.820Z,100557.16
2022-11-15T17:37:42.168Z,100563.13
2022-11-15T17:40:09.326Z,100539.63
2022-11-15T17:42:35.849Z,100533.78
2022-11-15T17:45:08.189Z,100535.91
2022-11-15T17:47:36.417Z,100537.88
2022-11-15T17:50:02.987Z,100548.28
2022-11-15T17:52:29.466Z,100544.06
2022-11-15T17:54:55.850Z,100543.53
2022-11-15T17:57:22.235Z,100538.34
2022-11-15T17:59:48.970Z,100531.47
2022-11-15T18:02:15.573Z,100545.66
2022-11-15T18:04:42.049Z,100531.41
2022-11-15T18:07:08.576Z,100522.94
2022-11-15T18:09:34.999Z,100510.72
2022-11-15T18:12:01.426Z,100537.28
2022-11-15T18:14:27.961Z,100530.63
2022-11-15T18:16:54.996Z,100523.84
2022-11-15T18:19:22.818Z,100501.09
2022-11-15T18:21:58.841Z,100519.38
2022-11-15T18:24:30.747Z,100517.63
2022-11-15T18:26:58.643Z,100497.31
2022-11-15T18:29:28.493Z,100498.09
2022-11-15T18:31:55.871Z,100491.09
2022-11-15T18:34:24.304Z,100505.38
2022-11-15T18:36:52.443Z,100493.00
2022-11-15T18:39:19.902Z,100500.09
2022-11-15T18:41:47.018Z,100507.97
2022-11-15T18:44:14.019Z,100501.94
2022-11-15T18:46:42.044Z,100510.78
2022-11-15T18:49:09.786Z,100499.09
2022-11-15T18:51:41.757Z,100497.41
2022-11-15T18:54:10.839Z,100486.50
2022-11-15T18:56:38.122Z,100491.84
2022-11-15T18:59:05.665Z,100490.88
2022-11-15T19:01:34.797Z,100499.88
2022-11-15T19:04:13.385Z,100495.53
2022-11-15T19:06:42.547Z,100498.34
2022-11-15T19:09:10.497Z,100490.63
2022-11-15T19:11:39.540Z,100482.94
2022-11-15T19:14:14.548Z,100498.03
2022-11-15T19:16:52.361Z,100483.16
2022-11-15T19:19:21.699Z,100472.09
2022-11-15T19:21:48.459Z,100479.47
2022-11-15T19:24:15.303Z,100478.34
2022-11-15T19:26:42.541Z,100486.88
2022-11-15T19:29:14.087Z,100487.03
2022-11-15T19:31:41.559Z,100490.03
2022-11-15T19:34:08.631Z,100480.16
2022-11-15T19:36:43.619Z,100487.56
2022-11-15T19:39:12.967Z,100485.72
2022-11-15T19:41:42.480Z,100488.09
2022-11-15T19:44:10.421Z,100475.66
2022-11-15T19:46:38.395Z,100484.81
2022-11-15T19:49:07.120Z,100481.13
2022-11-15T19:51:34.084Z,100480.94
2022-11-15T19:54:06.149Z,100471.63
2022-11-15T19:56:34.366Z,100475.97
2022-11-15T19:59:00.823Z,100490.56
2022-11-15T20:01:30.369Z,100473.50
2022-11-15T20:03:59.409Z,100464.69
2022-11-15T20:06:27.248Z,100466.88
2022-11-15T20:08:54.295Z,100468.03
2022-11-15T20:11:21.299Z,100466.06
2022-11-15T20:13:48.413Z,100467.94
2022-11-15T20:16:22.593Z,100460.59
2022-11-15T20:18:50.399Z,100474.13
2022-11-15T20:21:17.521Z,100460.81
2022-11-15T20:23:44.510Z,100468.84
2022-11-15T20:26:12.084Z,100468.50
2022-11-15T20:28:39.802Z,100466.34
2022-11-15T20:31:07.285Z,100468.19
2022-11-15T20:33:33.812Z,100465.88
2022-11-15T20:36:09.496Z,100457.00
2022-11-15T20:38:36.179Z,100454.00
2022-11-15T20:41:03.276Z,100450.50
2022-11-15T20:43:29.736Z,100450.34
2022-11-15T20:45:56.329Z,100458.72
2022-11-15T20:48:23.187Z,100456.88
2022-11-15T20:50:49.632Z,100431.56
2022-11-15T20:53:19.970Z,100448.66
2022-11-15T20:55:49.508Z,100453.50
2022-11-15T20:58:17.174Z,100449.50
2022-11-15T21:00:45.341Z,100450.34
2022-11-15T21:03:12.991Z,100439.13
2022-11-15T21:05:41.741Z,100448.16
2022-11-15T21:08:09.580Z,100440.97
2022-11-15T21:10:54.683Z,100445.00
2022-11-15T21:13:21.253Z,100426.22
2022-11-15T21:15:47.771Z,100416.38
2022-11-15T21:18:14.926Z,100434.13
2022-11-15T21:20:41.652Z,100431.78
2022-11-15T21:23:09.112Z,100433.94
2022-11-15T21:25:35.832Z,100424.56
2022-11-15T21:28:02.910Z,100426.75
2022-11-15T21:30:29.667Z,100412.00
2022-11-15T21:32:56.065Z,100406.97
2022-11-15T21:35:23.717Z,100423.56
2022-11-15T21:37:56.139Z,100414.03
2022-11-15T21:40:23.714Z,100419.19
2022-11-15T21:42:50.264Z,100415.69
2022-11-15T21:45:16.822Z,100407.34
2022-11-15T21:47:46.145Z,100412.69
2022-11-15T21:50:13.708Z,100437.44
2022-11-15T21:52:40.541Z,100440.13
2022-11-15T21:55:07.580Z,100417.88
2022-11-15T21:57:34.037Z,100421.03
2022-11-15T22:00:18.831Z,100415.16
2022-11-15T22:02:45.222Z,100427.06
2022-11-15T22:05:11.708Z,100413.34
2022-11-15T22:07:38.273Z,100421.88
2022-11-15T22:10:05.497Z,100401.63
2022-11-15T22:12:31.984Z,100418.53
2022-11-15T22:14:58.456Z,100420.19
2022-11-15T22:17:44.894Z,100418.88
2022-11-15T22:20:42.493Z,100414.00
2022-11-15T22:22:59.581Z,100405.81
2022-11-15T22:25:26.461Z,100390.25
2022-11-15T22:27:53.717Z,100411.31
2022-11-15T22:30:20.694Z,100396.44
2022-11-15T22:32:47.475Z,100398.09
2022-11-15T22:35:14.887Z,100377.84
2022-11-15T22:37:41.524Z,100396.63
2022-11-15T22:40:11.752Z,100388.25
2022-11-15T22:42:38.290Z,100401.31
2022-11-15T22:45:05.115Z,100397.47
2022-11-15T22:47:31.663Z,100390.41
2022-11-15T22:49:58.141Z,100388.09
2022-11-15T22:52:24.601Z,100378.53
2022-11-15T22:54:51.252Z,100393.75
2022-11-15T22:57:17.735Z,100377.88
2022-11-15T22:59:44.418Z,100391.41
2022-11-15T23:02:10.869Z,100384.91
2022-11-15T23:04:37.319Z,100381.03
2022-11-15T23:07:04.159Z,100376.50
2022-11-15T23:09:30.685Z,100373.53
2022-11-15T23:12:15.459Z,100382.72
2022-11-15T23:14:41.989Z,100384.56
2022-11-15T23:17:08.421Z,100376.19
2022-11-15T23:19:34.924Z,100374.34
2022-11-15T23:22:19.953Z,100361.78
2022-11-15T23:24:46.479Z,100362.66
2022-11-15T23:27:15.551Z,100373.19
2022-11-15T23:30:00.326Z,100362.94
2022-11-15T23:32:45.150Z,100330.69
2022-11-15T23:35:11.681Z,100347.91
2022-11-15T23:37:38.288Z,100359.28
2022-11-15T23:40:05.609Z,100353.75
2022-11-15T23:42:32.215Z,100349.22
2022-11-15T23:44:58.655Z,100353.75
2022-11-15T23:47:25.191Z,100328.97
2022-11-15T23:49:52.281Z,100342.31
2022-11-15T23:52:18.713Z,100355.38
2022-11-15T23:54:45.245Z,100346.69
2022-11-15T23:57:12.401Z,100347.69
2022-11-15T23:59:45.647Z,100349.03
